createdAt,value
2023-04-09T00:00:19.351Z,21.70
2023-04-09T00:03:09.142Z,19.03
2023-04-09T00:05:57.550Z,17.90
2023-04-09T00:08:45.941Z,18.40
2023-04-09T00:11:34.326Z,18.17
2023-04-09T00:14:22.660Z,19.90
2023-04-09T00:17:11.164Z,18.40
2023-04-09T00:20:00.915Z,18.50
2023-04-09T00:22:49.821Z,19.83
2023-04-09T00:25:38.252Z,18.80
2023-04-09T00:28:26.658Z,18.47
2023-04-09T00:31:15.027Z,19.07
2023-04-09T00:34:03.679Z,18.10
2023-04-09T00:36:53.396Z,20.97
2023-04-09T00:39:41.778Z,18.90
2023-04-09T00:42:33.004Z,19.10
2023-04-09T00:45:21.411Z,18.37
2023-04-09T00:48:09.807Z,19.43
2023-04-09T00:50:58.237Z,19.53
2023-04-09T00:53:48.046Z,20.13
2023-04-09T00:56:37.411Z,18.20
2023-04-09T00:59:26.442Z,19.10
2023-04-09T01:02:15.163Z,17.90
2023-04-09T01:05:03.776Z,19.03
2023-04-09T01:08:09.615Z,18.10
2023-04-09T01:11:07.143Z,18.30
2023-04-09T01:14:02.893Z,18.67
2023-04-09T01:16:54.577Z,18.07
2023-04-09T01:19:46.716Z,18.37
2023-04-09T01:22:43.616Z,18.03
2023-04-09T01:25:45.119Z,16.90
2023-04-09T01:28:38.655Z,17.83
2023-04-09T01:31:30.162Z,18.63
2023-04-09T01:34:19.807Z,19.80
2023-04-09T01:37:08.750Z,17.43
2023-04-09T01:39:57.203Z,19.60
2023-04-09T01:42:47.031Z,19.37
2023-04-09T01:45:37.393Z,18.73
2023-04-09T01:48:25.770Z,18.37
2023-04-09T01:51:14.717Z,18.47
2023-04-09T01:54:03.356Z,19.53
2023-04-09T01:56:51.761Z,17.30
2023-04-09T01:59:40.191Z,18.77
2023-04-09T02:02:37.008Z,19.93
2023-04-09T02:05:28.149Z,18.77
2023-04-09T02:08:21.230Z,18.60
2023-04-09T02:11:11.304Z,18.37
2023-04-09T02:13:59.809Z,19.30
2023-04-09T02:16:48.267Z,19.57
2023-04-09T02:19:41.885Z,19.10
2023-04-09T02:22:30.322Z,19.23
2023-04-09T02:25:18.647Z,18.07
2023-04-09T02:28:07.050Z,19.30
2023-04-09T02:30:55.464Z,18.30
2023-04-09T02:33:43.967Z,18.13
2023-04-09T02:36:33.651Z,18.60
2023-04-09T02:39:22.019Z,20.10
2023-04-09T02:42:10.696Z,19.93
2023-04-09T02:44:59.092Z,17.80
2023-04-09T02:47:48.977Z,18.67
2023-04-09T02:50:37.484Z,19.17
2023-04-09T02:53:27.417Z,19.43
2023-04-09T02:56:15.844Z,18.53
2023-04-09T02:59:04.172Z,19.63
2023-04-09T03:01:52.631Z,18.80
2023-04-09T03:04:41.125Z,17.50
2023-04-09T03:07:29.477Z,22.00
2023-04-09T03:10:19.327Z,17.20
2023-04-09T03:13:07.759Z,17.70
2023-04-09T03:15:56.121Z,17.30
2023-04-09T03:18:44.513Z,18.43
2023-04-09T03:21:33.209Z,17.00
2023-04-09T03:24:21.702Z,18.80
2023-04-09T03:27:12.073Z,18.27
2023-04-09T03:30:00.760Z,19.20
2023-04-09T03:32:56.983Z,17.10
2023-04-09T03:35:45.792Z,19.33
2023-04-09T03:38:37.082Z,18.50
2023-04-09T03:41:31.460Z,18.97
2023-04-09T03:44:25.075Z,17.40
2023-04-09T03:47:24.170Z,17.97
2023-04-09T03:50:13.572Z,20.80
2023-04-09T03:53:08.435Z,17.07
2023-04-09T03:55:58.443Z,19.20
2023-04-09T03:58:48.500Z,17.87
2023-04-09T04:01:42.657Z,17.47
2023-04-09T04:04:31.429Z,17.17
2023-04-09T04:07:20.602Z,17.90
2023-04-09T04:10:14.051Z,16.50
2023-04-09T04:13:08.356Z,18.43
2023-04-09T04:16:08.665Z,17.60
2023-04-09T04:19:00.447Z,17.30
2023-04-09T04:21:50.253Z,17.77
2023-04-09T04:24:38.802Z,19.17
2023-04-09T04:27:27.638Z,18.30
2023-04-09T04:30:16.280Z,16.30
2023-04-09T04:33:23.852Z,18.53
2023-04-09T04:36:16.539Z,17.27
2023-04-09T04:39:09.211Z,17.73
2023-04-09T04:42:40.871Z,17.23
2023-04-09T04:45:33.653Z,17.60
2023-04-09T04:48:28.195Z,18.27
2023-04-09T04:51:17.915Z,15.90
2023-04-09T04:54:17.985Z,28.53
2023-04-09T04:57:13.012Z,17.77
2023-04-09T05:00:02.618Z,17.40
2023-04-09T05:02:51.456Z,17.83
2023-04-09T05:05:43.908Z,17.10
2023-04-09T05:08:33.615Z,17.30
2023-04-09T05:11:22.750Z,17.67
2023-04-09T05:14:13.105Z,17.30
2023-04-09T05:17:01.771Z,18.00
2023-04-09T05:20:01.213Z,18.07
2023-04-09T05:22:58.954Z,20.37
2023-04-09T05:25:54.183Z,17.43
2023-04-09T05:28:54.459Z,17.13
2023-04-09T05:31:44.702Z,18.60
2023-04-09T05:34:42.507Z,20.83
2023-04-09T05:37:30.981Z,19.00
2023-04-09T05:40:19.538Z,18.63
2023-04-09T05:43:09.782Z,19.47
2023-04-09T05:46:04.286Z,18.30
2023-04-09T05:48:53.025Z,20.67
2023-04-09T05:51:43.270Z,19.70
2023-04-09T05:54:32.732Z,18.47
2023-04-09T05:57:21.155Z,18.50
2023-04-09T06:00:18.906Z,21.50
2023-04-09T06:03:10.204Z,18.70
2023-04-09T06:05:59.697Z,20.00
2023-04-09T06:08:49.217Z,18.40
2023-04-09T06:11:37.624Z,19.40
2023-04-09T06:14:26.024Z,20.20
2023-04-09T06:17:15.799Z,18.63
2023-04-09T06:20:04.445Z,20.37
2023-04-09T06:22:52.995Z,17.73
2023-04-09T06:25:41.674Z,19.60
2023-04-09T06:28:31.533Z,19.43
2023-04-09T06:31:22.325Z,19.60
2023-04-09T06:34:12.115Z,17.63
2023-04-09T06:37:00.441Z,17.67
2023-04-09T06:40:00.660Z,16.90
2023-04-09T06:42:49.825Z,18.13
2023-04-09T06:45:43.853Z,20.10
2023-04-09T06:48:32.350Z,17.80
2023-04-09T06:51:22.058Z,19.13
2023-04-09T06:54:10.390Z,18.60
2023-04-09T06:56:58.702Z,18.87
2023-04-09T06:59:47.097Z,18.90
2023-04-09T07:02:35.823Z,20.20
2023-04-09T07:05:24.258Z,19.50
2023-04-09T07:08:13.980Z,18.40
2023-04-09T07:11:03.369Z,18.07
2023-04-09T07:13:52.092Z,16.57
2023-04-09T07:16:40.723Z,19.90
2023-04-09T07:19:29.124Z,19.50
2023-04-09T07:22:17.488Z,18.10
2023-04-09T07:25:08.621Z,19.43
2023-04-09T07:27:57.227Z,19.00
2023-04-09T07:30:46.308Z,21.40
2023-04-09T07:33:34.777Z,23.30
2023-04-09T07:36:23.407Z,24.23
2023-04-09T07:39:12.864Z,19.70
2023-04-09T07:42:05.005Z,18.47
2023-04-09T07:44:53.744Z,22.20
2023-04-09T07:47:42.207Z,20.80
2023-04-09T07:50:31.165Z,21.30
2023-04-09T07:53:19.496Z,20.23
2023-04-09T07:56:08.549Z,22.00
2023-04-09T07:58:58.336Z,22.70
2023-04-09T08:01:46.824Z,21.73
2023-04-09T08:04:35.497Z,20.13
2023-04-09T08:07:23.946Z,21.20
2023-04-09T08:10:15.242Z,19.20
2023-04-09T08:13:03.653Z,20.80
2023-04-09T08:15:53.588Z,20.30
2023-04-09T08:18:41.935Z,22.57
2023-04-09T08:21:30.246Z,23.67
2023-04-09T08:24:18.720Z,21.70
2023-04-09T08:27:07.341Z,21.93
2023-04-09T08:29:55.686Z,20.13
2023-04-09T08:32:45.644Z,22.77
2023-04-09T08:35:34.277Z,20.60
2023-04-09T08:38:22.604Z,21.17
2023-04-09T08:41:18.767Z,20.90
2023-04-09T08:44:07.261Z,20.83
2023-04-09T08:46:57.623Z,21.90
2023-04-09T08:49:50.293Z,20.97
2023-04-09T08:52:39.444Z,19.90
2023-04-09T08:55:27.799Z,20.77
2023-04-09T08:58:16.137Z,19.87
2023-04-09T09:01:04.541Z,20.30
2023-04-09T09:03:58.344Z,23.83
2023-04-09T09:06:48.077Z,19.63
2023-04-09T09:09:51.739Z,20.20
2023-04-09T09:12:41.835Z,20.00
2023-04-09T09:15:31.019Z,21.97
2023-04-09T09:18:20.162Z,21.77
2023-04-09T09:21:12.508Z,21.40
2023-04-09T09:24:02.186Z,18.83
2023-04-09T09:26:50.649Z,19.00
2023-04-09T09:29:42.551Z,19.97
2023-04-09T09:32:31.021Z,20.30
2023-04-09T09:35:19.477Z,23.63
2023-04-09T09:38:07.902Z,20.00
2023-04-09T09:40:57.655Z,19.70
2023-04-09T09:43:46.251Z,20.93
2023-04-09T09:46:36.396Z,19.80
2023-04-09T09:49:24.791Z,20.90
2023-04-09T09:52:13.132Z,20.20
2023-04-09T09:55:04.300Z,19.87
2023-04-09T09:57:54.324Z,20.70
2023-04-09T10:00:42.974Z,19.00
2023-04-09T10:03:33.075Z,23.30
2023-04-09T10:06:21.592Z,19.77
2023-04-09T10:09:10.351Z,18.17
2023-04-09T10:11:59.409Z,18.33
2023-04-09T10:14:49.144Z,19.97
2023-04-09T10:17:38.913Z,19.60
2023-04-09T10:20:30.229Z,18.60
2023-04-09T10:23:26.214Z,20.43
2023-04-09T10:26:14.607Z,19.27
2023-04-09T10:29:08.250Z,19.87
2023-04-09T10:32:06.893Z,19.00
2023-04-09T10:34:59.431Z,21.33
2023-04-09T10:37:50.737Z,20.10
2023-04-09T10:40:42.899Z,19.10
2023-04-09T10:43:31.623Z,21.10
2023-04-09T10:46:30.540Z,20.20
2023-04-09T10:49:22.269Z,20.47
2023-04-09T10:52:13.775Z,19.53
2023-04-09T10:55:02.206Z,19.30
2023-04-09T10:57:50.640Z,20.63
2023-04-09T11:00:41.516Z,20.13
2023-04-09T11:03:31.508Z,19.60
2023-04-09T11:06:21.745Z,21.50
2023-04-09T11:09:10.036Z,18.70
2023-04-09T11:11:58.394Z,17.67
2023-04-09T11:14:46.716Z,17.30
2023-04-09T11:17:37.421Z,17.70
2023-04-09T11:20:26.899Z,20.00
2023-04-09T11:23:18.966Z,18.40
2023-04-09T11:26:08.013Z,19.00
2023-04-09T11:28:58.275Z,22.17
2023-04-09T11:31:46.763Z,19.80
2023-04-09T11:34:35.161Z,21.17
2023-04-09T11:37:23.464Z,19.83
2023-04-09T11:40:18.196Z,17.90
2023-04-09T11:43:09.324Z,18.37
2023-04-09T11:45:57.809Z,20.80
2023-04-09T11:48:46.730Z,18.90
2023-04-09T11:51:35.624Z,18.37
2023-04-09T11:54:23.942Z,19.27
2023-04-09T11:57:13.672Z,18.20
2023-04-09T12:00:07.400Z,18.27
2023-04-09T12:03:03.665Z,18.67
2023-04-09T12:05:52.406Z,17.33
2023-04-09T12:08:40.917Z,20.03
2023-04-09T12:11:30.228Z,18.47
2023-04-09T12:14:21.538Z,19.33
2023-04-09T12:17:09.887Z,18.10
2023-04-09T12:19:58.267Z,19.73
2023-04-09T12:22:46.624Z,17.77
2023-04-09T12:25:37.319Z,18.67
2023-04-09T12:28:25.883Z,20.23
2023-04-09T12:31:15.577Z,18.60
2023-04-09T12:34:04.090Z,17.13
2023-04-09T12:36:52.449Z,18.30
2023-04-09T12:39:41.016Z,19.90
2023-04-09T12:42:29.407Z,17.00
2023-04-09T12:45:19.342Z,17.23
2023-04-09T12:48:09.074Z,18.87
2023-04-09T12:50:57.483Z,18.00
2023-04-09T12:53:46.236Z,18.13
2023-04-09T12:56:35.338Z,17.07
2023-04-09T12:59:23.734Z,19.67
2023-04-09T13:02:12.781Z,17.53
2023-04-09T13:05:02.825Z,18.23
2023-04-09T13:07:51.462Z,18.57
2023-04-09T13:10:40.085Z,17.13
2023-04-09T13:13:28.762Z,18.83
2023-04-09T13:16:17.615Z,16.90
2023-04-09T13:19:07.848Z,17.33
2023-04-09T13:21:57.565Z,15.80
2023-04-09T13:24:46.012Z,16.33
2023-04-09T13:27:34.396Z,16.93
2023-04-09T13:30:22.954Z,16.23
2023-04-09T13:33:11.603Z,17.00
2023-04-09T13:36:00.203Z,18.33
2023-04-09T13:38:50.207Z,19.23
2023-04-09T13:41:38.622Z,19.53
2023-04-09T13:44:27.484Z,17.67
2023-04-09T13:47:21.515Z,17.20
2023-04-09T13:50:13.172Z,17.13
2023-04-09T13:53:05.580Z,18.70
2023-04-09T13:55:55.587Z,19.73
2023-04-09T13:58:44.027Z,15.13
2023-04-09T14:01:32.568Z,16.10
2023-04-09T14:04:21.812Z,18.80
2023-04-09T14:07:10.180Z,17.47
2023-04-09T14:09:58.544Z,18.13
2023-04-09T14:12:48.251Z,14.97
2023-04-09T14:15:36.710Z,14.47
2023-04-09T14:18:25.151Z,16.40
2023-04-09T14:21:13.948Z,18.00
2023-04-09T14:24:02.402Z,14.40
2023-04-09T14:26:53.492Z,17.73
2023-04-09T14:29:43.611Z,14.73
2023-04-09T14:32:32.074Z,15.30
2023-04-09T14:35:20.568Z,14.40
2023-04-09T14:38:09.947Z,14.03
2023-04-09T14:40:58.325Z,12.87
2023-04-09T14:43:46.683Z,14.20
2023-04-09T14:46:37.736Z,14.67
2023-04-09T14:49:26.260Z,15.07
2023-04-09T14:52:14.590Z,12.17
2023-04-09T14:55:02.959Z,13.80
2023-04-09T14:57:51.395Z,12.13
2023-04-09T15:00:39.810Z,11.97
2023-04-09T15:03:30.125Z,12.70
2023-04-09T15:06:18.618Z,12.17
2023-04-09T15:09:07.055Z,11.20
2023-04-09T15:11:56.070Z,11.93
2023-04-09T15:14:44.454Z,11.60
2023-04-09T15:17:32.831Z,11.37
2023-04-09T15:20:22.587Z,11.27
2023-04-09T15:23:11.115Z,13.07
2023-04-09T15:25:59.537Z,12.43
2023-04-09T15:28:47.883Z,10.80
2023-04-09T15:31:36.327Z,11.50
2023-04-09T15:34:25.805Z,11.63
2023-04-09T15:37:15.662Z,11.00
2023-04-09T15:40:05.154Z,9.27
2023-04-09T15:42:53.532Z,11.10
2023-04-09T15:45:42.167Z,11.30
2023-04-09T15:48:30.539Z,10.00
2023-04-09T15:51:19.143Z,11.50
2023-04-09T15:54:08.986Z,11.53
2023-04-09T15:56:57.312Z,11.07
2023-04-09T15:59:45.716Z,11.13
2023-04-09T16:02:34.088Z,11.57
2023-04-09T16:05:22.614Z,10.90
2023-04-09T16:08:11.740Z,11.13
2023-04-09T16:11:01.513Z,11.53
2023-04-09T16:13:49.873Z,10.50
2023-04-09T16:16:38.780Z,11.27
2023-04-09T16:19:28.592Z,10.00
2023-04-09T16:22:17.661Z,10.73
2023-04-09T16:25:06.792Z,11.20
2023-04-09T16:27:56.499Z,10.67
2023-04-09T16:30:45.375Z,10.23
2023-04-09T16:33:33.780Z,12.00
2023-04-09T16:36:22.346Z,12.47
2023-04-09T16:39:10.970Z,11.40
2023-04-09T16:41:59.318Z,12.50
2023-04-09T16:44:49.017Z,13.20
2023-04-09T16:47:37.434Z,13.33
2023-04-09T16:50:26.175Z,12.73
2023-04-09T16:53:14.600Z,14.00
2023-04-09T16:56:02.952Z,13.40
2023-04-09T16:58:51.622Z,13.33
2023-04-09T17:01:41.601Z,12.73
2023-04-09T17:04:30.122Z,13.00
2023-04-09T17:07:18.598Z,12.77
2023-04-09T17:10:08.347Z,13.27
2023-04-09T17:12:56.748Z,12.80
2023-04-09T17:15:45.195Z,12.67
2023-04-09T17:18:34.979Z,13.80
2023-04-09T17:21:23.368Z,15.57
2023-04-09T17:24:11.713Z,12.97
2023-04-09T17:27:00.040Z,15.93
2023-04-09T17:29:48.494Z,15.77
2023-04-09T17:32:36.960Z,14.17
2023-04-09T17:35:26.849Z,13.50
2023-04-09T17:38:21.084Z,15.23
2023-04-09T17:41:09.415Z,14.20
2023-04-09T17:43:58.173Z,16.67
2023-04-09T17:46:46.890Z,13.90
2023-04-09T17:49:35.571Z,15.03
2023-04-09T17:52:25.328Z,16.03
2023-04-09T17:55:14.054Z,14.27
2023-04-09T17:58:03.160Z,15.00
2023-04-09T18:00:53.901Z,15.60
2023-04-09T18:03:43.270Z,25.67
2023-04-09T18:06:31.929Z,23.60
2023-04-09T18:09:21.967Z,21.37
2023-04-09T18:12:10.898Z,17.70
2023-04-09T18:14:59.234Z,16.83
2023-04-09T18:17:47.677Z,16.07
2023-04-09T18:20:36.180Z,15.60
2023-04-09T18:23:24.519Z,16.30
2023-04-09T18:26:14.334Z,17.03
2023-04-09T18:29:02.746Z,18.07
2023-04-09T18:31:51.210Z,16.40
2023-04-09T18:34:39.632Z,16.30
2023-04-09T18:37:27.992Z,17.27
2023-04-09T18:40:17.884Z,16.80
2023-04-09T18:43:07.683Z,15.10
2023-04-09T18:45:56.249Z,15.83
2023-04-09T18:48:47.068Z,16.90
2023-04-09T18:51:35.629Z,17.77
2023-04-09T18:54:24.740Z,16.77
2023-04-09T18:57:13.165Z,16.40
2023-04-09T19:00:03.903Z,16.93
2023-04-09T19:02:52.476Z,17.07
2023-04-09T19:05:41.029Z,17.70
2023-04-09T19:08:32.365Z,17.07
2023-04-09T19:11:20.710Z,17.40
2023-04-09T19:14:09.635Z,21.10
2023-04-09T19:16:59.860Z,21.93
2023-04-09T19:19:48.457Z,18.50
2023-04-09T19:22:36.848Z,19.07
2023-04-09T19:25:25.312Z,18.17
2023-04-09T19:28:13.677Z,17.10
2023-04-09T19:31:03.562Z,18.23
2023-04-09T19:33:53.578Z,16.97
2023-04-09T19:36:44.329Z,19.07
2023-04-09T19:39:32.765Z,19.23
2023-04-09T19:42:21.141Z,16.63
2023-04-09T19:45:10.410Z,17.73
2023-04-09T19:47:58.902Z,17.60
2023-04-09T19:50:48.998Z,18.20
2023-04-09T19:53:37.866Z,20.37
2023-04-09T19:56:26.223Z,19.03
2023-04-09T19:59:14.609Z,17.47
2023-04-09T20:02:03.120Z,18.37
2023-04-09T20:04:52.428Z,19.33
2023-04-09T20:07:43.454Z,18.97
2023-04-09T20:10:31.849Z,18.63
2023-04-09T20:13:20.239Z,19.63
2023-04-09T20:16:08.649Z,18.20
2023-04-09T20:18:57.033Z,19.83
2023-04-09T20:21:45.402Z,17.70
2023-04-09T20:24:35.413Z,19.20
2023-04-09T20:27:23.839Z,18.30
2023-04-09T20:30:12.731Z,18.30
2023-04-09T20:33:01.386Z,18.23
2023-04-09T20:35:50.461Z,19.47
2023-04-09T20:38:38.886Z,21.23
2023-04-09T20:41:28.667Z,19.50
2023-04-09T20:44:17.315Z,18.47
2023-04-09T20:47:07.181Z,19.60
2023-04-09T20:49:59.676Z,19.40
2023-04-09T20:52:49.589Z,20.77
2023-04-09T20:55:38.768Z,18.73
2023-04-09T20:58:28.510Z,19.17
2023-04-09T21:01:16.891Z,19.40
2023-04-09T21:04:05.300Z,19.50
2023-04-09T21:06:53.762Z,19.47
2023-04-09T21:09:42.068Z,27.00
2023-04-09T21:12:32.681Z,24.90
2023-04-09T21:15:22.420Z,21.73
2023-04-09T21:18:10.837Z,24.33
2023-04-09T21:20:59.168Z,24.60
2023-04-09T21:23:47.527Z,21.30
2023-04-09T21:26:49.245Z,21.67
2023-04-09T21:29:39.023Z,22.13
2023-04-09T21:32:28.848Z,21.30
2023-04-09T21:35:17.285Z,20.43
2023-04-09T21:38:06.002Z,20.20
2023-04-09T21:40:54.385Z,19.27
2023-04-09T21:43:42.739Z,21.30
2023-04-09T21:46:31.130Z,19.37
2023-04-09T21:49:20.918Z,19.20
2023-04-09T21:52:14.363Z,19.70
2023-04-09T21:55:03.369Z,18.97
2023-04-09T21:57:53.626Z,20.00
2023-04-09T22:00:42.970Z,19.83
2023-04-09T22:03:31.559Z,19.50
2023-04-09T22:06:21.543Z,18.63
2023-04-09T22:09:10.198Z,21.80
2023-04-09T22:11:59.514Z,21.47
2023-04-09T22:14:47.934Z,23.73
2023-04-09T22:17:36.352Z,21.63
2023-04-09T22:20:26.355Z,21.70
2023-04-09T22:23:16.108Z,18.20
2023-04-09T22:26:04.555Z,19.73
2023-04-09T22:28:53.328Z,19.63
2023-04-09T22:31:42.138Z,20.53
2023-04-09T22:34:30.626Z,19.10
2023-04-09T22:37:19.790Z,21.47
2023-04-09T22:40:14.388Z,19.67
2023-04-09T22:43:02.730Z,19.40
2023-04-09T22:45:52.334Z,17.97
2023-04-09T22:48:55.535Z,18.87
2023-04-09T22:51:43.974Z,19.00
2023-04-09T22:54:32.362Z,18.40
2023-04-09T22:57:22.342Z,18.90
2023-04-09T23:00:11.165Z,18.77
2023-04-09T23:02:59.790Z,21.23
2023-04-09T23:05:48.429Z,18.93
2023-04-09T23:08:37.806Z,17.27
2023-04-09T23:11:27.282Z,18.00
2023-04-09T23:14:17.089Z,19.87
2023-04-09T23:17:05.641Z,17.73
2023-04-09T23:19:54.000Z,20.43
2023-04-09T23:22:42.400Z,16.50
2023-04-09T23:25:30.849Z,17.33
2023-04-09T23:28:19.217Z,17.43
2023-04-09T23:31:09.118Z,17.60
2023-04-09T23:33:57.463Z,17.80
2023-04-09T23:36:45.936Z,17.23
2023-04-09T23:39:34.252Z,17.87
2023-04-09T23:42:22.632Z,18.23
2023-04-09T23:45:12.063Z,18.53
2023-04-09T23:48:02.411Z,18.73
2023-04-09T23:50:50.782Z,17.47
2023-04-09T23:53:39.136Z,17.70
2023-04-09T23:56:27.457Z,18.63
2023-04-09T23:59:15.870Z,16.43
